Time;durP1;ratioP1;P1;durP2;ratioP2;P2;SDS_P1;SDS_P2;PMS_P1;PMS_P2;Temp;Humidity;BMP_temperature;BMP_pressure;BME280_temperature;BME280_humidity;BME280_pressure;Samples;Min_cycle;Max_cycle;Signal;HPM_P1;HPM_P2
2023/09/09 00:01:35;;;;;;;9.73;6.97;;;16.80;1.00;;;;;;5027574;28;20052;-78
2023/09/09 00:04:03;;;;;;;9.35;6.68;;;16.80;1.00;;;;;;5013073;28;20349;-79
2023/09/09 00:06:28;;;;;;;10.93;7.85;;;16.80;1.00;;;;;;5006747;28;20510;-79
2023/09/09 00:08:54;;;;;;;9.13;6.97;;;16.80;1.00;;;;;;5009739;28;20051;-80
2023/09/09 00:11:19;;;;;;;20.77;7.35;;;16.80;1.00;;;;;;5006535;28;20505;-79
2023/09/09 00:13:48;;;;;;;9.35;7.93;;;16.80;1.00;;;;;;5006870;28;20029;-81
2023/09/09 00:16:14;;;;;;;9.32;7.13;;;16.70;1.00;;;;;;5008415;28;20368;-79
2023/09/09 00:18:39;;;;;;;8.82;6.80;;;16.80;1.00;;;;;;5011350;28;20052;-79
2023/09/09 00:21:05;;;;;;;9.65;7.30;;;16.80;1.00;;;;;;5006757;28;20044;-78
2023/09/09 00:23:31;;;;;;;9.23;7.18;;;16.80;1.00;;;;;;5028200;28;20140;-79
2023/09/09 00:25:57;;;;;;;9.45;6.97;;;16.80;1.00;;;;;;5028997;28;20060;-79
2023/09/09 00:28:23;;;;;;;7.95;6.22;;;16.70;1.00;;;;;;5023906;28;20146;-79
2023/09/09 00:30:49;;;;;;;10.25;6.65;;;16.70;1.00;;;;;;5006284;28;20044;-79
2023/09/09 00:33:15;;;;;;;12.88;6.22;;;16.70;1.00;;;;;;5006033;28;20060;-79
2023/09/09 00:35:41;;;;;;;7.10;5.82;;;16.70;1.00;;;;;;5005952;28;20120;-79
2023/09/09 00:38:08;;;;;;;9.02;6.60;;;16.70;1.00;;;;;;5028398;28;20037;-80
2023/09/09 00:40:34;;;;;;;8.65;6.38;;;16.70;1.00;;;;;;5007089;28;20094;-80
2023/09/09 00:42:59;;;;;;;9.05;6.47;;;16.60;1.00;;;;;;5011957;28;20618;-79
2023/09/09 00:45:28;;;;;;;8.82;6.65;;;16.60;1.00;;;;;;5010470;28;20495;-79
2023/09/09 00:47:55;;;;;;;8.65;6.40;;;16.60;1.00;;;;;;5012272;28;20045;-79
2023/09/09 00:50:22;;;;;;;10.05;6.53;;;16.50;1.00;;;;;;5011087;28;20044;-79
2023/09/09 00:52:48;;;;;;;9.98;6.18;;;16.50;1.00;;;;;;5019159;28;20037;-80
2023/09/09 00:55:14;;;;;;;9.80;6.85;;;16.40;1.00;;;;;;5014208;28;20106;-79
2023/09/09 00:57:40;;;;;;;11.48;7.40;;;16.40;1.00;;;;;;5028398;28;20034;-79
2023/09/09 01:00:09;;;;;;;9.85;7.03;;;16.40;1.00;;;;;;5021169;28;20059;-79
2023/09/09 01:02:39;;;;;;;11.43;6.93;;;16.40;1.00;;;;;;5036526;28;20663;-79
2023/09/09 01:05:10;;;;;;;9.10;7.05;;;16.40;1.00;;;;;;5009080;28;20037;-80
2023/09/09 01:07:43;;;;;;;11.80;6.97;;;16.40;1.00;;;;;;5033533;28;20037;-79
2023/09/09 01:10:12;;;;;;;;;;;16.40;1.00;;;;;;5009617;28;20073;-79
2023/09/09 01:12:43;;;;;;;8.57;6.97;;;16.40;1.00;;;;;;5009447;28;19996;-79
2023/09/09 01:15:13;;;;;;;8.52;6.97;;;16.30;1.00;;;;;;5026979;28;20046;-80
2023/09/09 01:17:39;;;;;;;9.52;7.18;;;16.30;1.00;;;;;;5007143;28;20037;-80
2023/09/09 01:20:12;;;;;;;12.57;7.35;;;16.30;1.00;;;;;;5020088;28;20091;-79
2023/09/09 01:22:39;;;;;;;9.32;7.32;;;16.30;1.00;;;;;;5012561;28;20068;-79
2023/09/09 01:25:05;;;;;;;10.63;6.55;;;16.30;1.00;;;;;;5010977;28;20041;-79
2023/09/09 01:27:31;;;;;;;8.50;6.70;;;16.30;1.00;;;;;;5031959;28;20051;-79
2023/09/09 01:30:00;;;;;;;9.50;6.22;;;16.30;1.00;;;;;;5011634;28;20495;-79
2023/09/09 01:32:26;;;;;;;9.48;7.05;;;16.30;1.00;;;;;;5033580;28;20079;-79
2023/09/09 01:34:52;;;;;;;9.25;6.25;;;16.20;1.00;;;;;;5016433;28;20301;-79
2023/09/09 01:37:18;;;;;;;9.10;6.82;;;16.20;1.00;;;;;;5011814;28;20029;-79
2023/09/09 01:39:44;;;;;;;8.05;6.45;;;16.20;1.00;;;;;;5027609;28;20044;-79
2023/09/09 01:42:10;;;;;;;11.30;6.60;;;16.20;1.00;;;;;;5012637;28;20041;-79
2023/09/09 01:44:36;;;;;;;10.38;6.78;;;16.10;1.00;;;;;;5013329;28;20041;-80
2023/09/09 01:47:02;;;;;;;10.13;7.80;;;16.10;1.00;;;;;;5015609;28;20044;-79
2023/09/09 01:49:28;;;;;;;11.80;7.10;;;16.10;1.00;;;;;;5022647;28;20052;-79
2023/09/09 01:51:53;;;;;;;9.05;6.57;;;16.00;1.00;;;;;;5009743;28;20041;-79
2023/09/09 01:54:19;;;;;;;10.60;7.50;;;16.00;1.00;;;;;;5008767;28;20198;-79
2023/09/09 01:56:44;;;;;;;11.20;7.18;;;16.00;1.00;;;;;;5011870;28;20040;-79
2023/09/09 01:59:10;;;;;;;11.13;7.82;;;16.00;1.00;;;;;;5027860;28;20108;-79
2023/09/09 02:01:36;;;;;;;11.57;7.90;;;16.00;1.00;;;;;;4997859;28;20041;-79
2023/09/09 02:04:01;;;;;;;14.27;8.73;;;16.00;1.00;;;;;;5035937;28;20043;-79
2023/09/09 02:06:28;;;;;;;10.82;8.07;;;16.00;1.00;;;;;;5013659;28;20116;-79
2023/09/09 02:08:54;;;;;;;11.40;7.30;;;16.00;1.00;;;;;;5005554;28;20045;-79
2023/09/09 02:11:20;;;;;;;10.68;7.95;;;16.00;1.00;;;;;;5023975;28;20032;-79
2023/09/09 02:13:45;;;;;;;11.02;7.72;;;16.00;1.00;;;;;;5020884;28;20119;-79
2023/09/09 02:16:11;;;;;;;14.10;8.63;;;15.90;1.00;;;;;;5006977;28;20045;-80
2023/09/09 02:18:37;;;;;;;11.43;8.35;;;16.00;1.00;;;;;;5006545;28;20487;-80
2023/09/09 02:21:04;;;;;;;13.25;8.60;;;15.90;2.80;;;;;;5004180;28;20041;-79
2023/09/09 02:23:29;;;;;;;12.95;8.65;;;16.00;5.40;;;;;;5026329;28;20048;-79
2023/09/09 02:25:56;;;;;;;11.32;8.25;;;16.00;3.40;;;;;;5012082;28;20109;-79
2023/09/09 02:28:22;;;;;;;11.73;8.40;;;15.90;3.90;;;;;;5010820;28;20059;-79
2023/09/09 02:30:48;;;;;;;16.65;8.98;;;15.90;5.60;;;;;;5031160;28;20045;-79
2023/09/09 02:33:14;;;;;;;14.18;8.73;;;15.90;3.90;;;;;;5005344;28;20068;-79
2023/09/09 02:35:48;;;;;;;13.27;8.27;;;15.90;8.50;;;;;;5029398;28;20044;-80
2023/09/09 02:38:13;;;;;;;12.85;8.50;;;15.90;15.10;;;;;;5024232;28;20045;-79
2023/09/09 02:40:39;;;;;;;11.65;7.82;;;15.90;15.30;;;;;;5022399;28;20055;-79
2023/09/09 02:43:05;;;;;;;10.90;7.57;;;15.90;14.10;;;;;;5007264;28;20055;-79
2023/09/09 02:45:30;;;;;;;11.52;8.40;;;15.80;15.00;;;;;;5003479;28;20038;-79
2023/09/09 02:47:56;;;;;;;11.93;8.43;;;15.80;15.50;;;;;;5029241;28;20072;-79
2023/09/09 02:50:21;;;;;;;12.07;9.07;;;15.80;18.10;;;;;;5024500;28;20040;-79
2023/09/09 02:52:50;;;;;;;12.43;8.85;;;15.80;20.60;;;;;;5025732;28;20039;-79
2023/09/09 02:55:16;;;;;;;12.75;8.85;;;15.80;24.10;;;;;;5023187;28;20037;-79
2023/09/09 02:57:46;;;;;;;11.20;8.73;;;15.80;23.20;;;;;;5002211;28;20036;-79
2023/09/09 03:00:13;;;;;;;12.48;9.43;;;15.80;29.20;;;;;;5027417;28;20037;-79
2023/09/09 03:02:42;;;;;;;13.50;9.00;;;15.80;31.50;;;;;;5004092;28;20041;-79
2023/09/09 03:05:08;;;;;;;12.02;9.02;;;15.70;36.00;;;;;;5028237;28;20076;-79
2023/09/09 03:07:34;;;;;;;15.63;9.60;;;15.80;44.90;;;;;;5026609;28;20049;-79
2023/09/09 03:09:59;;;;;;;11.82;8.93;;;15.80;46.20;;;;;;5022428;28;20087;-79
2023/09/09 03:12:25;;;;;;;13.30;8.93;;;15.80;46.90;;;;;;5025603;28;20061;-79
2023/09/09 03:14:50;;;;;;;13.10;8.95;;;15.80;46.20;;;;;;5028631;28;20041;-79
2023/09/09 03:17:17;;;;;;;13.35;9.25;;;15.80;41.90;;;;;;5013502;28;20120;-79
2023/09/09 03:19:43;;;;;;;12.65;9.07;;;15.80;44.60;;;;;;5025111;28;20033;-79
2023/09/09 03:22:09;;;;;;;12.88;9.85;;;15.80;45.30;;;;;;5026406;28;20452;-79
2023/09/09 03:24:34;;;;;;;14.20;10.23;;;15.80;46.40;;;;;;5019597;28;20080;-79
2023/09/09 03:27:00;;;;;;;10.52;7.55;;;15.80;49.40;;;;;;5013733;28;20055;-79
2023/09/09 03:29:25;;;;;;;11.93;8.50;;;15.80;50.40;;;;;;5011282;28;20044;-79
2023/09/09 03:31:51;;;;;;;12.00;9.32;;;15.80;45.90;;;;;;5002730;28;20107;-79
2023/09/09 03:34:20;;;;;;;11.75;8.35;;;15.70;43.00;;;;;;5011047;28;20053;-79
2023/09/09 03:36:46;;;;;;;11.70;9.23;;;15.70;42.70;;;;;;5016984;28;20111;-79
2023/09/09 03:39:11;;;;;;;12.48;8.32;;;15.70;41.80;;;;;;5026907;28;20043;-79
2023/09/09 03:41:39;;;;;;;14.38;9.23;;;15.60;41.90;;;;;;5026515;28;20091;-79
2023/09/09 03:44:05;;;;;;;14.02;9.27;;;15.70;42.00;;;;;;5008758;28;20124;-79
2023/09/09 03:46:30;;;;;;;12.82;9.55;;;15.60;44.00;;;;;;5014782;28;20457;-80
2023/09/09 03:48:56;;;;;;;11.48;8.98;;;15.50;45.00;;;;;;5015143;28;20519;-79
2023/09/09 03:51:22;;;;;;;13.45;8.88;;;15.50;45.60;;;;;;5014496;28;20181;-79
2023/09/09 03:53:48;;;;;;;13.73;9.50;;;15.50;49.80;;;;;;5030343;28;20036;-79
2023/09/09 03:56:14;;;;;;;12.68;9.18;;;15.40;51.30;;;;;;5032148;28;20041;-79
2023/09/09 03:58:40;;;;;;;15.45;10.63;;;15.40;55.60;;;;;;5031357;28;20037;-79
2023/09/09 04:01:07;;;;;;;14.50;9.70;;;15.40;60.90;;;;;;5004682;28;20045;-79
2023/09/09 04:03:35;;;;;;;14.68;10.40;;;15.40;66.00;;;;;;5008982;28;21824;-78
2023/09/09 04:06:04;;;;;;;13.88;10.48;;;15.40;71.70;;;;;;5025498;28;20462;-79
2023/09/09 04:08:30;;;;;;;15.27;10.40;;;15.40;73.70;;;;;;5032960;28;20041;-79
2023/09/09 04:10:56;;;;;;;17.17;11.57;;;15.40;69.10;;;;;;5004482;28;20116;-79
2023/09/09 04:13:21;;;;;;;16.90;11.32;;;15.40;68.20;;;;;;5031714;28;20147;-79
2023/09/09 04:15:47;;;;;;;17.33;11.50;;;15.30;67.00;;;;;;5010939;28;20037;-79
2023/09/09 04:18:13;;;;;;;14.38;11.27;;;15.30;68.90;;;;;;5006076;28;20087;-79
2023/09/09 04:20:39;;;;;;;15.50;11.18;;;15.30;74.00;;;;;;5017430;28;20033;-79
2023/09/09 04:23:05;;;;;;;17.17;12.20;;;15.40;81.10;;;;;;5004028;28;20121;-79
2023/09/09 04:25:30;;;;;;;12.73;9.18;;;15.40;80.90;;;;;;5011249;28;20430;-79
2023/09/09 04:27:56;;;;;;;13.85;10.13;;;15.40;80.10;;;;;;5029412;28;20792;-79
2023/09/09 04:30:21;;;;;;;14.77;9.75;;;15.40;80.10;;;;;;5028274;28;20041;-79
2023/09/09 04:32:47;;;;;;;15.73;10.43;;;15.30;80.50;;;;;;5008141;28;20558;-79
2023/09/09 04:35:13;;;;;;;12.90;9.80;;;15.30;79.80;;;;;;5016874;28;20055;-79
2023/09/09 04:37:42;;;;;;;12.10;9.23;;;15.30;81.90;;;;;;5001674;28;20041;-79
2023/09/09 04:40:10;;;;;;;15.30;9.73;;;15.30;81.70;;;;;;5012776;28;20037;-79
2023/09/09 04:42:35;;;;;;;14.48;10.05;;;15.30;84.20;;;;;;5028208;28;20028;-79
2023/09/09 04:45:03;;;;;;;13.38;10.05;;;15.20;85.80;;;;;;5009618;28;20661;-79
2023/09/09 04:47:28;;;;;;;16.98;10.57;;;15.30;87.80;;;;;;5017943;28;20053;-79
2023/09/09 04:49:57;;;;;;;13.88;10.25;;;15.20;88.80;;;;;;5028638;28;20131;-79
2023/09/09 04:52:23;;;;;;;13.93;10.07;;;15.30;88.40;;;;;;5020233;28;20064;-79
2023/09/09 04:54:49;;;;;;;14.55;10.68;;;15.20;89.50;;;;;;5019131;28;20423;-79
2023/09/09 04:57:15;;;;;;;14.45;10.43;;;15.20;86.30;;;;;;5012602;28;20051;-79
2023/09/09 04:59:41;;;;;;;15.05;9.57;;;15.10;84.90;;;;;;5021311;28;20410;-79
2023/09/09 05:02:07;;;;;;;15.55;10.45;;;15.10;85.50;;;;;;5020445;28;20029;-79
2023/09/09 05:04:33;;;;;;;14.25;10.27;;;15.10;85.40;;;;;;5007356;28;20094;-79
2023/09/09 05:06:58;;;;;;;16.23;11.63;;;15.10;88.30;;;;;;5015993;28;20049;-79
2023/09/09 05:09:24;;;;;;;18.40;13.05;;;15.00;89.10;;;;;;5021541;28;20080;-78
2023/09/09 05:11:49;;;;;;;21.45;13.32;;;15.00;91.90;;;;;;5028008;28;20056;-77
2023/09/09 05:14:15;;;;;;;17.40;13.38;;;15.10;94.10;;;;;;5029886;28;20041;-79
2023/09/09 05:16:41;;;;;;;21.00;13.70;;;15.10;95.70;;;;;;5005686;28;20030;-79
2023/09/09 05:19:06;;;;;;;22.63;15.25;;;15.20;97.00;;;;;;5013794;28;20029;-79
2023/09/09 05:21:32;;;;;;;22.73;15.90;;;15.20;98.70;;;;;;5007897;28;20283;-78
2023/09/09 05:23:57;;;;;;;26.05;16.00;;;15.30;99.90;;;;;;5007899;28;20135;-79
2023/09/09 05:26:23;;;;;;;23.75;15.13;;;15.30;99.90;;;;;;5002643;28;20043;-79
2023/09/09 05:28:49;;;;;;;22.13;14.98;;;15.40;99.90;;;;;;5020740;28;20045;-78
2023/09/09 05:31:15;;;;;;;24.08;15.23;;;15.50;99.90;;;;;;5027541;28;20063;-78
2023/09/09 05:33:41;;;;;;;21.25;14.52;;;15.50;99.90;;;;;;5008709;28;20144;-78
2023/09/09 05:36:07;;;;;;;23.45;15.15;;;15.60;99.90;;;;;;5010763;28;20119;-79
2023/09/09 05:38:32;;;;;;;24.60;16.45;;;15.60;99.90;;;;;;5024078;28;20056;-79
2023/09/09 05:40:58;;;;;;;28.63;15.40;;;15.70;99.90;;;;;;5040110;28;20037;-79
2023/09/09 05:43:24;;;;;;;24.73;14.88;;;15.70;99.90;;;;;;5011620;28;20051;-79
2023/09/09 05:45:49;;;;;;;22.20;15.13;;;15.80;99.90;;;;;;5018431;28;20516;-79
2023/09/09 05:48:15;;;;;;;22.75;15.38;;;15.90;99.90;;;;;;5012228;28;20112;-78
2023/09/09 05:50:41;;;;;;;20.80;14.73;;;15.90;99.90;;;;;;5026494;28;20045;-80
2023/09/09 05:53:06;;;;;;;21.65;14.80;;;16.00;99.90;;;;;;5008788;28;20030;-78
2023/09/09 05:55:32;;;;;;;23.27;15.65;;;16.20;99.90;;;;;;5024243;28;20040;-78
2023/09/09 05:57:58;;;;;;;21.77;14.10;;;16.30;99.90;;;;;;5010731;28;20036;-78
2023/09/09 06:00:23;;;;;;;20.65;15.15;;;16.50;99.90;;;;;;5003183;28;20531;-78
2023/09/09 06:02:49;;;;;;;22.85;15.35;;;16.60;99.90;;;;;;5011680;28;20530;-78
2023/09/09 06:05:15;;;;;;;19.35;14.18;;;16.80;99.90;;;;;;5005526;28;20037;-76
2023/09/09 06:07:41;;;;;;;20.42;14.32;;;17.00;99.90;;;;;;5015532;28;20044;-77
2023/09/09 06:10:07;;;;;;;19.45;14.15;;;17.20;99.90;;;;;;5024332;28;20086;-77
2023/09/09 06:12:33;;;;;;;22.60;13.65;;;17.40;99.90;;;;;;5027599;28;20061;-77
2023/09/09 06:14:59;;;;;;;18.20;12.57;;;17.60;99.90;;;;;;5021731;28;20161;-77
2023/09/09 06:17:25;;;;;;;17.63;12.77;;;17.70;99.90;;;;;;5008167;28;20123;-78
2023/09/09 06:19:50;;;;;;;16.08;13.00;;;17.80;99.90;;;;;;5029309;28;20050;-76
2023/09/09 06:22:16;;;;;;;23.90;14.38;;;17.90;99.90;;;;;;5017959;28;20133;-77
2023/09/09 06:24:41;;;;;;;20.00;14.40;;;17.90;99.90;;;;;;4999138;28;20060;-77
2023/09/09 06:27:08;;;;;;;21.27;15.07;;;18.00;99.90;;;;;;5012759;28;20401;-77
2023/09/09 06:29:34;;;;;;;17.33;13.82;;;18.00;99.90;;;;;;5009448;28;20288;-77
2023/09/09 06:32:00;;;;;;;19.92;13.63;;;18.00;99.90;;;;;;5022000;28;20035;-77
2023/09/09 06:34:26;;;;;;;22.58;14.63;;;18.00;99.90;;;;;;5002974;28;20053;-77
2023/09/09 06:36:52;;;;;;;19.67;14.85;;;18.00;99.90;;;;;;5023810;28;20033;-77
2023/09/09 06:39:18;;;;;;;19.33;14.95;;;18.10;99.90;;;;;;5021564;28;20043;-76
2023/09/09 06:41:43;;;;;;;20.40;14.13;;;18.10;93.90;;;;;;5011476;28;20424;-78
2023/09/09 06:44:09;;;;;;;19.70;15.05;;;18.20;80.30;;;;;;5016744;28;20678;-75
2023/09/09 06:46:34;;;;;;;21.75;14.80;;;18.30;64.80;;;;;;5012507;28;20036;-76
2023/09/09 06:49:00;;;;;;;23.40;14.48;;;18.30;52.90;;;;;;5025751;28;20029;-76
2023/09/09 06:51:28;;;;;;;18.50;14.38;;;18.40;40.00;;;;;;5015110;28;20041;-77
2023/09/09 06:53:54;;;;;;;20.77;15.07;;;18.40;30.50;;;;;;5008280;28;20095;-77
2023/09/09 06:56:20;;;;;;;21.08;13.90;;;18.50;20.90;;;;;;5009636;28;20052;-76
2023/09/09 06:58:45;;;;;;;18.58;14.15;;;18.60;10.40;;;;;;5018496;28;20411;-76
2023/09/09 07:01:11;;;;;;;18.67;14.27;;;18.70;1.00;;;;;;5029052;28;20054;-77
2023/09/09 07:03:37;;;;;;;19.77;14.00;;;18.80;1.00;;;;;;5008223;28;20119;-77
2023/09/09 07:06:03;;;;;;;20.85;14.65;;;18.80;1.00;;;;;;5043128;28;20069;-76
2023/09/09 07:08:29;;;;;;;20.77;14.10;;;18.90;1.00;;;;;;5018555;28;20056;-75
2023/09/09 07:10:56;;;;;;;18.58;13.95;;;19.00;1.00;;;;;;5034250;28;20048;-75
2023/09/09 07:13:22;;;;;;;21.08;14.38;;;19.20;1.00;;;;;;5010005;28;20280;-76
2023/09/09 07:15:54;;;;;;;20.15;14.02;;;19.20;1.00;;;;;;5023518;28;20110;-76
2023/09/09 07:18:21;;;;;;;20.05;14.48;;;19.40;1.00;;;;;;5003975;28;20041;-75
2023/09/09 07:20:46;;;;;;;24.42;16.35;;;19.40;1.00;;;;;;5036664;28;20033;-75
2023/09/09 07:23:16;;;;;;;20.98;15.35;;;19.60;1.00;;;;;;5027731;28;20084;-76
2023/09/09 07:25:43;;;;;;;26.65;17.70;;;19.70;1.00;;;;;;5012655;28;20044;-76
2023/09/09 07:28:09;;;;;;;24.77;18.23;;;19.80;1.00;;;;;;5011049;28;20750;-75
2023/09/09 07:30:35;;;;;;;23.60;17.10;;;19.90;1.00;;;;;;5030083;28;20048;-76
2023/09/09 07:33:01;;;;;;;25.20;17.88;;;20.00;1.00;;;;;;5004259;28;20081;-77
2023/09/09 07:35:26;;;;;;;24.80;18.48;;;20.00;1.00;;;;;;5010723;28;20048;-76
2023/09/09 07:37:52;;;;;;;24.13;17.05;;;20.10;1.00;;;;;;5026359;28;20192;-75
2023/09/09 07:40:18;;;;;;;22.58;16.85;;;20.20;1.00;;;;;;5029111;28;20045;-75
2023/09/09 07:42:43;;;;;;;25.77;18.17;;;20.20;1.00;;;;;;5024052;28;20058;-76
2023/09/09 07:45:09;;;;;;;26.27;18.02;;;20.40;99.90;;;;;;5023638;28;20037;-76
2023/09/09 07:47:35;;;;;;;23.38;16.52;;;20.50;99.90;;;;;;5018056;28;20395;-76
2023/09/09 07:50:01;;;;;;;24.40;18.27;;;20.60;99.90;;;;;;5008955;28;20037;-79
2023/09/09 07:52:28;;;;;;;29.05;18.80;;;20.80;99.90;;;;;;5030788;28;21318;-77
2023/09/09 07:54:54;;;;;;;24.80;18.27;;;20.90;99.90;;;;;;5011603;28;20460;-77
2023/09/09 07:57:22;;;;;;;25.77;18.50;;;21.00;99.90;;;;;;5014550;28;20033;-77
2023/09/09 07:59:47;;;;;;;26.23;18.77;;;21.10;99.90;;;;;;5016241;28;20041;-77
2023/09/09 08:02:14;;;;;;;24.75;19.35;;;21.10;99.90;;;;;;5021926;28;20041;-77
2023/09/09 08:04:39;;;;;;;29.15;19.00;;;21.20;99.90;;;;;;5020683;28;20056;-77
2023/09/09 08:07:05;;;;;;;31.77;20.60;;;21.30;99.90;;;;;;5029930;28;20110;-75
2023/09/09 08:09:32;;;;;;;29.38;18.58;;;21.40;99.90;;;;;;5032389;28;20442;-77
2023/09/09 08:11:57;;;;;;;24.92;19.13;;;21.50;99.90;;;;;;5011469;28;20091;-75
2023/09/09 08:14:23;;;;;;;28.27;19.27;;;21.50;99.90;;;;;;5017159;28;20124;-74
2023/09/09 08:16:49;;;;;;;25.85;20.15;;;21.50;99.90;;;;;;5012222;28;20574;-74
2023/09/09 08:19:18;;;;;;;28.80;21.08;;;21.60;99.90;;;;;;5033641;28;20052;-74
2023/09/09 08:21:43;;;;;;;29.25;19.02;;;21.60;99.90;;;;;;5007281;28;20519;-74
2023/09/09 08:24:09;;;;;;;29.17;20.45;;;21.60;99.90;;;;;;5017897;28;20041;-73
2023/09/09 08:26:37;;;;;;;27.00;20.15;;;21.80;99.90;;;;;;5011366;28;20041;-74
2023/09/09 08:29:04;;;;;;;28.88;20.50;;;22.00;99.90;;;;;;5008740;28;20424;-74
2023/09/09 08:31:30;;;;;;;33.72;19.95;;;22.00;99.90;;;;;;5019430;28;20072;-75
2023/09/09 08:33:56;;;;;;;27.92;19.08;;;22.00;99.90;;;;;;5022061;28;20053;-75
2023/09/09 08:36:21;;;;;;;26.08;19.70;;;22.10;99.90;;;;;;5022269;28;20049;-75
2023/09/09 08:38:47;;;;;;;27.63;20.83;;;22.10;99.90;;;;;;5032315;28;20041;-77
2023/09/09 08:41:46;;;;;;;29.25;21.50;;;22.20;99.90;;;;;;5015860;28;20036;-77
2023/09/09 08:44:29;;;;;;;30.00;21.48;;;22.50;22.40;;;;;;5017220;28;20055;-77
2023/09/09 08:46:57;;;;;;;34.38;22.50;;;22.60;1.00;;;;;;5031377;28;20139;-77
2023/09/09 08:49:30;;;;;;;31.90;21.88;;;22.80;1.00;;;;;;5031215;28;20048;-78
2023/09/09 08:52:06;;;;;;;30.15;22.05;;;22.90;1.00;;;;;;5016900;28;20466;-77
2023/09/09 08:54:34;;;;;;;;;;;23.00;1.00;;;;;;5020569;28;20034;-78
2023/09/09 08:57:02;;;;;;;31.65;22.30;;;23.10;1.00;;;;;;5028384;28;20333;-78
2023/09/09 08:59:29;;;;;;;30.42;21.38;;;23.30;1.00;;;;;;5025492;28;20045;-77
2023/09/09 09:01:56;;;;;;;31.23;22.15;;;23.50;1.00;;;;;;5042352;28;21432;-77
2023/09/09 09:04:22;;;;;;;32.05;21.60;;;23.60;99.90;;;;;;5013229;28;20053;-77
2023/09/09 09:06:48;;;;;;;30.95;22.17;;;23.70;99.90;;;;;;5010748;28;20068;-77
2023/09/09 09:09:17;;;;;;;32.00;21.63;;;24.00;99.90;;;;;;5008378;28;20499;-78
2023/09/09 09:11:45;;;;;;;32.28;21.48;;;24.10;99.90;;;;;;5029653;28;20052;-79
2023/09/09 09:14:11;;;;;;;33.60;22.83;;;24.20;99.90;;;;;;5030690;28;20051;-79
2023/09/09 09:16:39;;;;;;;29.80;20.92;;;24.30;99.90;;;;;;5010865;28;20036;-79
2023/09/09 09:19:05;;;;;;;29.45;21.38;;;24.40;99.90;;;;;;5005069;28;20067;-77
2023/09/09 09:21:35;;;;;;;33.47;23.38;;;24.60;99.90;;;;;;5009915;28;20701;-78
2023/09/09 09:24:02;;;;;;;27.23;19.25;;;24.90;99.90;;;;;;5013214;28;20048;-78
2023/09/09 09:26:29;;;;;;;28.35;21.33;;;25.10;99.90;;;;;;5009423;28;20163;-78
2023/09/09 09:28:55;;;;;;;27.13;20.38;;;25.40;99.90;;;;;;5030647;28;20056;-78
2023/09/09 09:31:23;;;;;;;25.27;20.02;;;25.70;99.90;;;;;;4996305;28;20038;-78
2023/09/09 09:33:51;;;;;;;22.83;18.30;;;26.10;99.90;;;;;;5024416;28;20060;-77
2023/09/09 09:36:19;;;;;;;24.80;18.70;;;27.30;40.40;;;;;;5027262;28;20112;-79
2023/09/09 09:38:45;;;;;;;23.30;18.08;;;28.50;1.00;;;;;;5030580;28;20077;-78
2023/09/09 09:41:11;;;;;;;27.48;20.45;;;29.70;1.00;;;;;;5013469;28;20068;-78
2023/09/09 09:43:39;;;;;;;21.60;17.00;;;30.70;1.00;;;;;;5014098;28;20036;-78
2023/09/09 09:46:15;;;;;;;25.83;19.33;;;31.30;1.00;;;;;;5022592;28;20111;-79
2023/09/09 09:48:41;;;;;;;;;;;31.60;1.00;;;;;;5020072;28;20080;-79
2023/09/09 09:51:07;;;;;;;;;;;32.10;1.00;;;;;;5022188;28;20458;-79
2023/09/09 09:53:55;;;;;;;22.70;18.10;;;32.40;1.00;;;;;;5012679;28;19916;-79
2023/09/09 09:56:21;;;;;;;20.95;16.73;;;32.70;1.00;;;;;;5021015;28;20053;-79
2023/09/09 09:58:49;;;;;;;21.85;18.23;;;32.90;1.00;;;;;;5012935;28;20122;-79
2023/09/09 10:01:30;;;;;;;22.00;18.13;;;33.10;1.00;;;;;;5029845;28;20102;-78
2023/09/09 10:04:04;;;;;;;18.67;16.50;;;33.60;1.00;;;;;;5022676;28;20034;-79
2023/09/09 10:06:34;;;;;;;20.67;17.67;;;34.10;1.00;;;;;;5031717;28;20067;-79
2023/09/09 10:09:32;;;;;;;21.55;16.88;;;34.40;1.00;;;;;;5014913;28;20045;-80
2023/09/09 10:12:14;;;;;;;16.25;14.50;;;34.80;1.00;;;;;;5010820;28;20064;-79
2023/09/09 10:14:41;;;;;;;22.05;17.02;;;35.00;1.00;;;;;;5027949;28;20182;-80
2023/09/09 10:17:08;;;;;;;20.77;16.85;;;35.10;1.00;;;;;;5045863;28;20182;-80
2023/09/09 10:19:36;;;;;;;21.98;18.27;;;35.20;1.00;;;;;;5013164;28;20041;-79
2023/09/09 10:22:04;;;;;;;21.85;15.98;;;35.50;1.00;;;;;;5012320;28;20179;-80
2023/09/09 10:24:32;;;;;;;19.10;15.68;;;35.80;1.00;;;;;;5020340;28;20411;-80
2023/09/09 10:27:01;;;;;;;16.55;14.07;;;35.80;1.00;;;;;;5014051;28;20399;-80
2023/09/09 10:29:31;;;;;;;17.50;14.88;;;36.10;1.00;;;;;;5011791;28;20091;-79
2023/09/09 10:32:05;;;;;;;18.63;15.30;;;36.10;1.00;;;;;;5012442;28;20052;-80
2023/09/09 10:34:38;;;;;;;18.00;13.95;;;36.00;1.00;;;;;;5012201;28;20107;-80
2023/09/09 10:37:06;;;;;;;14.82;12.13;;;36.30;1.00;;;;;;4997870;28;20041;-80
2023/09/09 10:39:34;;;;;;;14.13;11.73;;;36.80;1.00;;;;;;5018059;28;20491;-80
2023/09/09 10:42:05;;;;;;;12.85;10.35;;;37.40;1.00;;;;;;5016474;28;20037;-80
2023/09/09 10:44:35;;;;;;;12.05;10.38;;;37.80;1.00;;;;;;5004390;28;20522;-80
2023/09/09 10:47:09;;;;;;;14.70;11.02;;;37.60;1.00;;;;;;5012322;28;20033;-80
2023/09/09 10:49:42;;;;;;;10.65;9.35;;;37.80;1.00;;;;;;5005441;28;20159;-81
2023/09/09 11:16:09;;;;;;;7.97;6.00;;;38.20;1.00;;;;;;4779248;29;20050;-80
2023/09/09 11:35:22;;;;;;;;;;;;;;;;;;;;;
2023/09/09 11:53:54;;;;;;;8.75;7.47;;;40.80;1.00;;;;;;4821396;29;20134;-80
2023/09/09 11:57:40;;;;;;;;;;;;;;;;;;;;;
2023/09/09 12:00:21;;;;;;;9.85;8.32;;;40.00;1.00;;;;;;4767567;29;20691;-81
2023/09/09 12:02:50;;;;;;;11.68;10.35;;;40.20;1.00;;;;;;4868218;29;20132;-77
2023/09/09 12:05:15;;;;;;;11.35;9.13;;;39.30;1.00;;;;;;4958109;28;20105;-77
2023/09/09 12:07:45;;;;;;;10.35;9.18;;;38.90;1.00;;;;;;5000779;28;20137;-78
2023/09/09 12:10:14;;;;;;;11.52;9.85;;;39.30;1.00;;;;;;4989950;28;20048;-75
2023/09/09 12:12:44;;;;;;;10.82;9.73;;;39.80;1.00;;;;;;4989212;28;20130;-77
2023/09/09 12:15:12;;;;;;;11.30;9.98;;;39.70;1.00;;;;;;5007289;28;20056;-76
2023/09/09 12:17:38;;;;;;;10.30;7.85;;;38.40;1.00;;;;;;4988622;28;20164;-76
2023/09/09 12:20:05;;;;;;;9.32;7.82;;;37.40;1.00;;;;;;4973531;28;20500;-78
2023/09/09 12:22:32;;;;;;;10.02;7.00;;;36.30;1.00;;;;;;4988287;28;20049;-81
2023/09/09 12:24:58;;;;;;;10.10;8.60;;;35.50;1.00;;;;;;4984921;28;20741;-78
2023/09/09 12:27:42;;;;;;;11.50;8.63;;;35.20;1.00;;;;;;4988069;28;20148;-77
2023/09/09 12:30:33;;;;;;;12.38;7.88;;;35.50;1.00;;;;;;5007445;28;20048;-77
2023/09/09 12:33:19;;;;;;;10.15;7.07;;;36.50;1.00;;;;;;5027412;28;20045;-81
2023/09/09 12:35:49;;;;;;;8.93;7.13;;;37.90;1.00;;;;;;5001833;28;20102;-77
2023/09/09 12:38:19;;;;;;;8.13;7.10;;;38.10;1.00;;;;;;5013037;28;20502;-77
2023/09/09 12:40:52;;;;;;;7.57;6.05;;;37.10;1.00;;;;;;5010405;28;20056;-77
2023/09/09 12:43:30;;;;;;;7.22;5.32;;;36.90;1.00;;;;;;5026906;28;20040;-77
2023/09/09 12:46:06;;;;;;;8.52;6.72;;;36.90;1.00;;;;;;5011810;28;20068;-77
2023/09/09 12:48:32;;;;;;;7.03;6.32;;;37.70;1.00;;;;;;5021978;28;20130;-76
2023/09/09 12:50:58;;;;;;;6.35;5.38;;;38.50;1.00;;;;;;5008138;28;20054;-77
2023/09/09 12:53:24;;;;;;;5.47;4.97;;;39.10;1.00;;;;;;5038130;28;20094;-77
2023/09/09 12:55:49;;;;;;;5.10;4.60;;;39.70;1.00;;;;;;5010170;28;20556;-77
2023/09/09 12:58:15;;;;;;;5.32;4.70;;;39.90;1.00;;;;;;5008261;28;20053;-77
2023/09/09 13:00:41;;;;;;;6.75;4.45;;;39.90;1.00;;;;;;5028733;28;20044;-84
2023/09/09 13:03:13;;;;;;;7.05;6.10;;;40.10;1.00;;;;;;5017316;28;20037;-81
2023/09/09 13:05:41;;;;;;;5.20;4.70;;;40.70;1.00;;;;;;5008914;28;20791;-80
2023/09/09 13:08:07;;;;;;;5.00;3.95;;;41.10;1.00;;;;;;5010614;28;20033;-81
2023/09/09 13:10:32;;;;;;;6.85;4.07;;;41.00;1.00;;;;;;5007665;28;20040;-79
2023/09/09 13:12:58;;;;;;;7.95;5.10;;;40.50;1.00;;;;;;5023815;28;20036;-80
2023/09/09 13:15:25;;;;;;;5.20;4.68;;;40.60;1.00;;;;;;5011216;28;20530;-80
2023/09/09 13:17:52;;;;;;;6.05;5.38;;;40.90;1.00;;;;;;5012203;28;20041;-80
2023/09/09 13:20:17;;;;;;;5.30;4.45;;;41.00;1.00;;;;;;5021108;28;20041;-80
2023/09/09 13:22:43;;;;;;;6.18;4.78;;;41.20;1.00;;;;;;5021056;28;20052;-81
2023/09/09 13:25:09;;;;;;;4.63;3.97;;;41.10;1.00;;;;;;5006835;28;20122;-80
2023/09/09 13:27:37;;;;;;;4.05;3.65;;;41.30;1.00;;;;;;5006733;28;20052;-80
2023/09/09 13:30:15;;;;;;;4.32;3.72;;;41.30;1.00;;;;;;5017079;28;20064;-81
2023/09/09 13:33:19;;;;;;;3.90;3.33;;;40.80;1.00;;;;;;5011141;28;20080;-80
2023/09/09 13:36:23;;;;;;;5.32;3.72;;;40.40;1.00;;;;;;5040158;28;20482;-80
2023/09/09 13:41:50;;;;;;;4.13;3.42;;;40.30;1.00;;;;;;5025309;28;20052;-80
2023/09/09 13:44:40;;;;;;;6.00;4.20;;;40.20;1.00;;;;;;5020889;28;20045;-80
2023/09/09 13:47:38;;;;;;;8.18;4.80;;;39.70;1.00;;;;;;5009796;28;20045;-80